Time;durP1;ratioP1;P1;durP2;ratioP2;P2;SDS_P1;SDS_P2;PMS_P1;PMS_P2;Temp;Humidity;BMP_temperature;BMP_pressure;BME280_temperature;BME280_humidity;BME280_pressure;Samples;Min_cycle;Max_cycle;Signal;HPM_P1;HPM_P2
2022/09/14 00:01:21;;;;;;;0.60;0.60;;;12.80;99.90;;;;;;4807868;29;20486;-87
2022/09/14 00:03:50;;;;;;;0.95;0.82;;;12.80;99.90;;;;;;4810931;29;20622;-87
2022/09/14 00:06:16;;;;;;;1.48;1.00;;;12.80;99.90;;;;;;4826453;29;20630;-87
2022/09/14 00:08:49;;;;;;;0.85;0.60;;;12.80;99.90;;;;;;4811402;29;20133;-88
2022/09/14 00:11:18;;;;;;;0.40;0.40;;;12.80;99.90;;;;;;4810980;29;20096;-91
2022/09/14 00:13:45;;;;;;;0.75;0.75;;;12.90;99.90;;;;;;4810942;29;20042;-91
2022/09/14 00:16:17;;;;;;;0.75;0.70;;;12.90;99.90;;;;;;4811074;29;20046;-91
2022/09/14 00:18:44;;;;;;;1.13;0.57;;;12.90;99.90;;;;;;4810874;29;20520;-90
2022/09/14 00:21:11;;;;;;;0.75;0.57;;;13.00;99.90;;;;;;4810962;29;20041;-90
2022/09/14 00:23:39;;;;;;;0.77;0.65;;;13.10;99.90;;;;;;4811161;29;20046;-90
2022/09/14 00:26:08;;;;;;;0.70;0.50;;;13.10;99.90;;;;;;4811016;29;20520;-90
2022/09/14 00:28:40;;;;;;;1.23;0.55;;;13.40;99.90;;;;;;4810982;29;20046;-90
2022/09/14 00:31:06;;;;;;;0.77;0.55;;;13.20;99.90;;;;;;4808379;29;20042;-90
2022/09/14 00:33:33;;;;;;;1.20;0.80;;;13.20;99.90;;;;;;4810855;29;20058;-90
2022/09/14 00:36:10;;;;;;;0.75;0.50;;;13.20;99.90;;;;;;4810571;29;20058;-89
2022/09/14 00:38:38;;;;;;;1.23;0.70;;;13.20;99.90;;;;;;4843189;29;20038;-90
2022/09/14 00:41:07;;;;;;;2.47;0.77;;;13.20;99.90;;;;;;4843761;29;20493;-90
2022/09/14 00:43:53;;;;;;;1.38;0.85;;;13.10;99.90;;;;;;4802403;29;20571;-90
2022/09/14 00:46:20;;;;;;;1.25;0.80;;;13.20;99.90;;;;;;4825750;29;20038;-90
2022/09/14 00:48:46;;;;;;;1.02;0.70;;;13.20;99.90;;;;;;4810491;29;20056;-90
2022/09/14 00:51:18;;;;;;;0.55;0.50;;;13.30;99.90;;;;;;4810722;29;20042;-90
2022/09/14 00:53:45;;;;;;;3.75;0.88;;;13.30;99.90;;;;;;4825555;29;20054;-90
2022/09/14 00:56:13;;;;;;;0.77;0.63;;;13.40;99.90;;;;;;4824975;29;20102;-90
2022/09/14 00:58:40;;;;;;;0.93;0.65;;;13.50;99.90;;;;;;4825348;29;20088;-90
2022/09/14 01:01:09;;;;;;;0.73;0.73;;;13.60;99.90;;;;;;4810563;29;20106;-87
2022/09/14 01:03:35;;;;;;;1.08;0.80;;;13.60;99.90;;;;;;4825171;29;20070;-87
2022/09/14 01:06:30;;;;;;;2.55;1.15;;;13.60;99.90;;;;;;4810433;29;20125;-88
2022/09/14 01:09:07;;;;;;;2.78;1.15;;;14.30;99.90;;;;;;4789052;29;20050;-87
2022/09/14 01:11:38;;;;;;;2.05;0.88;;;13.70;99.90;;;;;;4825090;29;20046;-87
2022/09/14 01:14:23;;;;;;;3.03;1.27;;;13.80;99.90;;;;;;4824499;29;20042;-87
2022/09/14 01:17:05;;;;;;;1.63;0.90;;;13.80;99.90;;;;;;4803320;29;20505;-87
2022/09/14 01:19:48;;;;;;;1.77;1.27;;;13.90;99.90;;;;;;4809493;29;20447;-89
2022/09/14 01:22:21;;;;;;;2.10;1.13;;;13.90;99.90;;;;;;4809612;29;20099;-90
2022/09/14 01:25:05;;;;;;;2.35;1.10;;;13.90;99.90;;;;;;4809796;29;20544;-90
2022/09/14 01:27:40;;;;;;;1.52;1.30;;;13.90;99.90;;;;;;4809782;29;20081;-90
2022/09/14 01:30:27;;;;;;;2.15;1.00;;;14.00;99.90;;;;;;4810008;29;20455;-90
2022/09/14 01:33:16;;;;;;;1.15;0.90;;;13.80;99.90;;;;;;4809698;29;20047;-90
2022/09/14 01:36:07;;;;;;;3.22;1.65;;;13.80;99.90;;;;;;4824636;29;20107;-88
2022/09/14 01:38:55;;;;;;;4.65;1.58;;;13.70;99.90;;;;;;4800046;29;20050;-88
2022/09/14 01:41:59;;;;;;;1.42;0.98;;;13.60;99.90;;;;;;4809491;29;20086;-88
2022/09/14 01:44:57;;;;;;;2.63;1.20;;;13.40;99.90;;;;;;4824697;29;20038;-88
2022/09/14 01:48:16;;;;;;;2.70;1.40;;;13.50;99.90;;;;;;4809462;29;20056;-87
2022/09/14 01:50:49;;;;;;;1.83;1.27;;;13.60;99.90;;;;;;4792000;29;20058;-88
2022/09/14 01:53:25;;;;;;;3.28;1.27;;;13.50;99.90;;;;;;4818444;29;20379;-88
2022/09/14 01:55:59;;;;;;;;;;;13.60;99.90;;;;;;4825506;24;20046;-90
2022/09/14 01:59:47;;;;;;;1.77;1.20;;;13.60;99.90;;;;;;4804655;29;19925;-90
2022/09/14 02:02:45;;;;;;;1.75;1.05;;;13.60;99.90;;;;;;4753651;30;20066;-90
2022/09/14 02:05:49;;;;;;;1.58;1.20;;;13.60;99.90;;;;;;4753413;30;20167;-89
2022/09/14 02:08:29;;;;;;;3.70;1.77;;;13.10;99.90;;;;;;4790454;29;20409;-88
2022/09/14 02:10:58;;;;;;;2.42;1.50;;;13.70;99.90;;;;;;4808072;29;20042;-87
2022/09/14 02:13:25;;;;;;;1.90;1.20;;;13.70;99.90;;;;;;4792827;29;20051;-88
2022/09/14 02:15:51;;;;;;;1.27;0.98;;;13.80;99.90;;;;;;4792948;29;20397;-87
2022/09/14 02:18:20;;;;;;;4.03;1.20;;;13.80;99.90;;;;;;4807907;29;20430;-88
2022/09/14 02:21:03;;;;;;;4.38;1.13;;;13.90;99.90;;;;;;4792918;29;20402;-88
2022/09/14 02:23:29;;;;;;;2.00;1.15;;;13.90;99.90;;;;;;4792892;29;20375;-88
2022/09/14 02:25:55;;;;;;;0.77;0.77;;;14.00;99.90;;;;;;4759672;29;20462;-87
2022/09/14 02:28:21;;;;;;;2.42;1.20;;;14.00;99.90;;;;;;4767381;29;20042;-87
2022/09/14 02:31:05;;;;;;;2.40;1.35;;;14.00;99.90;;;;;;4805000;29;20060;-87
2022/09/14 02:33:47;;;;;;;2.10;1.05;;;14.10;99.90;;;;;;4808881;29;20463;-87
2022/09/14 02:36:24;;;;;;;1.20;0.90;;;14.10;99.90;;;;;;4823688;29;20050;-87
2022/09/14 02:39:06;;;;;;;1.65;1.10;;;13.90;99.90;;;;;;4820479;29;20401;-87
2022/09/14 02:41:55;;;;;;;3.15;1.10;;;14.20;99.90;;;;;;4842239;29;20046;-87
2022/09/14 02:44:36;;;;;;;2.33;1.15;;;14.30;99.90;;;;;;4826708;29;20515;-87
2022/09/14 02:47:18;;;;;;;2.08;1.20;;;14.30;99.90;;;;;;4841181;29;20085;-87
2022/09/14 02:49:47;;;;;;;5.85;1.08;;;14.30;99.90;;;;;;4823908;29;20199;-88
2022/09/14 02:52:36;;;;;;;2.13;1.30;;;14.40;99.90;;;;;;4808644;29;20431;-87
2022/09/14 02:55:13;;;;;;;2.75;1.38;;;14.40;99.90;;;;;;4826257;29;20064;-87
2022/09/14 02:58:08;;;;;;;1.30;1.00;;;14.40;99.90;;;;;;4841794;29;20493;-90
2022/09/14 03:00:39;;;;;;;1.90;1.15;;;14.40;99.90;;;;;;4826715;29;20540;-91
2022/09/14 03:03:06;;;;;;;2.97;0.95;;;14.30;99.90;;;;;;4826770;29;20516;-90
2022/09/14 03:05:33;;;;;;;1.60;0.88;;;14.30;99.90;;;;;;4826934;29;20099;-90
2022/09/14 03:08:00;;;;;;;2.10;1.27;;;14.40;99.90;;;;;;4811633;29;20129;-90
2022/09/14 03:10:26;;;;;;;3.45;1.40;;;14.40;99.90;;;;;;4812165;29;20501;-90
2022/09/14 03:12:55;;;;;;;3.60;1.58;;;14.30;99.90;;;;;;4841633;29;20405;-90
2022/09/14 03:15:27;;;;;;;2.47;1.30;;;14.30;99.90;;;;;;4841639;29;20045;-87
2022/09/14 03:18:08;;;;;;;3.50;1.25;;;14.30;99.90;;;;;;4828690;29;20084;-87
2022/09/14 03:20:34;;;;;;;3.10;1.27;;;14.20;99.90;;;;;;4842604;29;20491;-87
2022/09/14 03:23:04;;;;;;;1.92;1.13;;;14.30;99.90;;;;;;4844486;29;20504;-87
2022/09/14 03:25:34;;;;;;;2.45;1.35;;;14.30;99.90;;;;;;4844531;29;20505;-87
2022/09/14 03:28:00;;;;;;;1.35;0.98;;;14.30;99.90;;;;;;4844532;29;20532;-87
2022/09/14 03:30:27;;;;;;;1.70;0.80;;;14.30;99.90;;;;;;4829674;29;20145;-88
2022/09/14 03:32:53;;;;;;;3.17;1.10;;;14.40;99.90;;;;;;4844696;29;20132;-88
2022/09/14 03:35:19;;;;;;;1.35;0.95;;;14.40;99.90;;;;;;4829326;29;20136;-88
2022/09/14 03:37:46;;;;;;;1.27;0.80;;;14.40;99.90;;;;;;4861242;29;20041;-88
2022/09/14 03:40:13;;;;;;;1.15;0.77;;;14.40;99.90;;;;;;4847912;29;20049;-88
2022/09/14 03:42:47;;;;;;;1.33;0.63;;;14.40;99.90;;;;;;4863722;29;20037;-88
2022/09/14 03:45:17;;;;;;;1.90;1.17;;;14.40;99.90;;;;;;4848569;29;20058;-88
2022/09/14 03:47:46;;;;;;;1.15;0.88;;;14.50;99.90;;;;;;4847701;29;20051;-90
2022/09/14 03:50:13;;;;;;;0.93;0.80;;;14.50;99.90;;;;;;4831060;29;20450;-90
2022/09/14 03:52:39;;;;;;;2.58;1.00;;;14.50;99.90;;;;;;4846707;29;20057;-90
2022/09/14 03:55:08;;;;;;;2.22;1.17;;;14.50;99.90;;;;;;4832650;29;20060;-90
2022/09/14 03:57:34;;;;;;;0.70;0.70;;;14.60;99.90;;;;;;4848058;29;20132;-90
2022/09/14 04:00:00;;;;;;;0.90;0.77;;;14.50;99.90;;;;;;4848273;29;20052;-90
2022/09/14 04:02:28;;;;;;;1.95;0.93;;;14.60;99.90;;;;;;4832758;29;20041;-90
2022/09/14 04:04:54;;;;;;;3.13;1.17;;;14.50;99.90;;;;;;4863071;29;20407;-88
2022/09/14 04:07:50;;;;;;;1.77;0.93;;;14.60;99.90;;;;;;4817694;29;20140;-88
2022/09/14 04:10:59;;;;;;;3.83;1.10;;;14.50;99.90;;;;;;4847509;29;20049;-87
2022/09/14 04:13:38;;;;;;;2.25;1.10;;;14.50;99.90;;;;;;4806110;29;20038;-87
2022/09/14 04:16:04;;;;;;;1.10;0.75;;;14.50;99.90;;;;;;4812069;29;20545;-88
2022/09/14 04:18:31;;;;;;;0.93;0.70;;;14.50;99.90;;;;;;4829007;29;20050;-88
2022/09/14 04:21:02;;;;;;;2.67;1.23;;;14.60;99.90;;;;;;4842861;29;20049;-88
2022/09/14 04:23:31;;;;;;;1.92;1.10;;;14.60;99.90;;;;;;4840990;29;20089;-88
2022/09/14 04:25:57;;;;;;;2.92;1.30;;;14.60;99.90;;;;;;4847528;29;20392;-88
2022/09/14 04:28:23;;;;;;;1.70;1.08;;;14.60;99.90;;;;;;4831985;29;20133;-88
2022/09/14 04:31:01;;;;;;;1.23;0.90;;;14.60;99.90;;;;;;4847388;29;20366;-88
2022/09/14 04:33:32;;;;;;;1.77;1.17;;;14.60;99.90;;;;;;4847401;29;20397;-88
2022/09/14 04:36:05;;;;;;;1.15;1.02;;;14.50;99.90;;;;;;4847089;29;20037;-88
2022/09/14 04:38:34;;;;;;;1.67;1.50;;;14.50;99.90;;;;;;4851146;29;20081;-88
2022/09/14 04:41:06;;;;;;;2.65;1.00;;;14.50;99.90;;;;;;4856948;29;20045;-87
2022/09/14 04:43:32;;;;;;;1.42;1.15;;;14.50;99.90;;;;;;4849892;29;20053;-87
2022/09/14 04:46:04;;;;;;;2.10;0.90;;;14.60;99.90;;;;;;4831509;29;20386;-87
2022/09/14 04:48:34;;;;;;;1.00;0.73;;;14.60;99.90;;;;;;4845626;29;20041;-88
2022/09/14 04:51:12;;;;;;;0.88;0.60;;;14.50;99.90;;;;;;4832284;29;20055;-88
2022/09/14 04:53:39;;;;;;;2.20;1.20;;;14.60;99.90;;;;;;4846901;29;20425;-90
2022/09/14 04:56:07;;;;;;;1.65;0.85;;;14.60;99.90;;;;;;4846474;29;20433;-91
2022/09/14 04:58:38;;;;;;;2.78;1.38;;;14.60;99.90;;;;;;4846723;29;20061;-90
2022/09/14 05:01:07;;;;;;;1.10;0.82;;;14.60;99.90;;;;;;4846611;29;20389;-90
2022/09/14 05:03:34;;;;;;;3.55;1.05;;;14.60;99.90;;;;;;4862014;29;20041;-90
2022/09/14 05:06:07;;;;;;;1.15;0.90;;;14.50;99.90;;;;;;4846510;29;20510;-90
2022/09/14 05:08:35;;;;;;;2.15;1.00;;;14.60;99.90;;;;;;4831742;29;20508;-90
2022/09/14 05:11:01;;;;;;;1.80;1.00;;;14.60;99.90;;;;;;4831039;29;20576;-90
2022/09/14 05:13:27;;;;;;;1.13;0.75;;;14.60;99.90;;;;;;4846244;29;20093;-90
2022/09/14 05:15:53;;;;;;;2.85;0.90;;;14.50;99.90;;;;;;4846721;29;20124;-90
2022/09/14 05:18:19;;;;;;;1.58;1.00;;;14.50;99.90;;;;;;4843912;29;20048;-90
2022/09/14 05:20:45;;;;;;;1.20;1.08;;;14.50;99.90;;;;;;4846111;29;20041;-90
2022/09/14 05:23:11;;;;;;;1.77;1.13;;;14.50;99.90;;;;;;4846269;29;20062;-90
2022/09/14 05:25:37;;;;;;;1.92;0.98;;;14.60;99.90;;;;;;4846083;29;20046;-90
2022/09/14 05:28:03;;;;;;;0.98;0.82;;;14.60;99.90;;;;;;4846155;29;20070;-90
2022/09/14 05:30:29;;;;;;;1.55;1.05;;;14.60;99.90;;;;;;4861781;29;20468;-90
2022/09/14 05:32:58;;;;;;;2.28;0.80;;;14.70;99.90;;;;;;4830635;29;20083;-90
2022/09/14 05:35:23;;;;;;;2.40;1.10;;;14.70;99.90;;;;;;4845877;29;20050;-90
2022/09/14 05:37:57;;;;;;;2.03;0.90;;;14.70;99.90;;;;;;4861223;29;20077;-90
2022/09/14 05:40:23;;;;;;;2.13;1.00;;;14.70;99.90;;;;;;4860879;29;20128;-88
2022/09/14 05:42:49;;;;;;;1.58;1.00;;;14.70;99.90;;;;;;4815472;29;20140;-88
2022/09/14 05:45:15;;;;;;;2.20;1.20;;;14.70;99.90;;;;;;4845690;29;20041;-90
2022/09/14 05:47:41;;;;;;;3.88;1.02;;;14.70;99.90;;;;;;4846196;29;20132;-90
2022/09/14 05:50:09;;;;;;;2.85;1.02;;;14.80;99.90;;;;;;4845838;29;20488;-90
2022/09/14 05:52:35;;;;;;;2.35;1.02;;;14.80;99.90;;;;;;4844946;29;20050;-90
2022/09/14 05:55:01;;;;;;;4.30;1.52;;;14.80;99.90;;;;;;4845134;29;20056;-90
2022/09/14 05:57:27;;;;;;;0.80;0.80;;;14.90;99.90;;;;;;4845745;29;20064;-90
2022/09/14 06:00:15;;;;;;;1.05;0.85;;;14.90;99.90;;;;;;4860360;29;20136;-90
2022/09/14 06:03:09;;;;;;;1.00;0.85;;;15.00;99.90;;;;;;4845072;29;20429;-90
2022/09/14 06:06:01;;;;;;;1.33;0.90;;;15.00;99.90;;;;;;4830872;29;20177;-90
2022/09/14 06:09:03;;;;;;;1.92;0.77;;;15.20;99.90;;;;;;4846389;29;20057;-90
2022/09/14 06:11:36;;;;;;;2.95;1.08;;;15.20;99.90;;;;;;4846156;29;20477;-90
2022/09/14 06:14:03;;;;;;;2.25;0.90;;;15.20;99.90;;;;;;4845349;29;20037;-90
2022/09/14 06:16:29;;;;;;;2.80;1.15;;;15.30;99.90;;;;;;4830350;29;20140;-90
2022/09/14 06:21:59;;;;;;;3.40;1.05;;;15.00;99.90;;;;;;4833333;29;20405;-87
2022/09/14 06:28:34;;;;;;;3.10;1.20;;;15.00;99.90;;;;;;4813541;29;20081;-88
2022/09/14 06:32:06;;;;;;;4.47;1.20;;;15.70;99.90;;;;;;4811333;29;20054;-88
2022/09/14 06:35:18;;;;;;;1.58;0.90;;;15.70;99.90;;;;;;4777938;29;20470;-88
2022/09/14 06:41:41;;;;;;;3.92;1.30;;;15.40;99.90;;;;;;4811868;29;20470;-88
2022/09/14 06:44:49;;;;;;;1.10;0.88;;;15.90;99.90;;;;;;4768353;30;20407;-88
2022/09/14 06:51:10;;;;;;;1.95;1.15;;;15.80;99.90;;;;;;4757041;30;20055;-90
2022/09/14 06:53:36;;;;;;;4.93;1.23;;;16.40;99.90;;;;;;4738710;30;20060;-90
2022/09/14 06:56:02;;;;;;;1.35;0.85;;;16.40;99.90;;;;;;4738554;30;20059;-90
2022/09/14 06:58:28;;;;;;;3.85;1.30;;;16.60;99.90;;;;;;4767670;29;20154;-90
2022/09/14 07:00:54;;;;;;;2.38;1.02;;;16.60;99.90;;;;;;4745187;29;20057;-90
2022/09/14 07:04:21;;;;;;;;;;;;;;;;;;;;;
2022/09/14 07:07:03;;;;;;;3.53;0.85;;;16.90;99.90;;;;;;4814141;29;20051;-90
2022/09/14 07:09:32;;;;;;;3.30;1.38;;;17.20;99.90;;;;;;4770843;29;20056;-90
2022/09/14 07:12:01;;;;;;;2.10;1.00;;;17.60;99.90;;;;;;4789788;29;20042;-90
2022/09/14 07:14:27;;;;;;;1.40;1.15;;;17.80;99.90;;;;;;4799750;29;20517;-90
2022/09/14 07:16:52;;;;;;;2.05;1.30;;;17.90;99.90;;;;;;4829832;29;20069;-90
2022/09/14 07:19:34;;;;;;;1.48;1.00;;;18.00;99.90;;;;;;4814684;29;20065;-90
2022/09/14 07:22:03;;;;;;;1.45;0.77;;;18.00;99.90;;;;;;4844139;29;20048;-90
2022/09/14 07:24:52;;;;;;;1.83;1.10;;;17.90;99.90;;;;;;4828294;29;20124;-88
2022/09/14 07:27:26;;;;;;;4.00;1.13;;;17.90;99.90;;;;;;4817301;29;20097;-88
2022/09/14 07:29:55;;;;;;;4.05;1.42;;;17.90;99.90;;;;;;4829780;29;20397;-88
2022/09/14 07:32:27;;;;;;;1.45;1.00;;;17.90;99.90;;;;;;4827485;29;20138;-87
2022/09/14 07:34:53;;;;;;;1.67;0.90;;;18.00;99.90;;;;;;4843960;29;20049;-87
2022/09/14 07:37:18;;;;;;;1.85;1.05;;;18.20;99.90;;;;;;4848531;29;20499;-88
2022/09/14 07:39:56;;;;;;;1.40;1.00;;;18.40;99.90;;;;;;4835240;29;20133;-88
2022/09/14 07:42:33;;;;;;;1.05;0.90;;;18.70;99.90;;;;;;4823384;29;20145;-91
2022/09/14 07:44:59;;;;;;;2.05;1.10;;;19.30;99.90;;;;;;4832149;29;20045;-91
2022/09/14 07:47:30;;;;;;;0.75;0.65;;;19.60;99.90;;;;;;4867432;29;20052;-90
2022/09/14 07:50:01;;;;;;;0.70;0.50;;;19.80;99.90;;;;;;4847506;29;20049;-90
2022/09/14 07:52:38;;;;;;;2.40;0.75;;;20.00;99.90;;;;;;4851431;29;20504;-90
2022/09/14 07:55:27;;;;;;;0.80;0.40;;;20.00;99.90;;;;;;4836935;29;20057;-90
2022/09/14 07:57:59;;;;;;;0.75;0.70;;;19.90;99.90;;;;;;4836002;29;20133;-87
2022/09/14 08:00:27;;;;;;;2.55;0.98;;;19.90;99.90;;;;;;4831163;29;20072;-87
2022/09/14 08:02:56;;;;;;;1.70;0.65;;;19.70;99.90;;;;;;4841452;29;20041;-87
2022/09/14 08:05:26;;;;;;;1.17;0.70;;;19.70;99.90;;;;;;4844618;29;20370;-88
2022/09/14 08:08:08;;;;;;;2.25;0.68;;;19.50;99.90;;;;;;4844095;29;20044;-87
2022/09/14 08:10:42;;;;;;;1.40;0.50;;;19.60;99.90;;;;;;4831088;29;20037;-88
2022/09/14 08:13:21;;;;;;;2.30;0.98;;;19.30;99.90;;;;;;4826570;29;20588;-88
2022/09/14 08:16:09;;;;;;;1.17;0.40;;;19.90;99.90;;;;;;4852991;29;20416;-87
2022/09/14 08:21:51;;;;;;;0.80;0.40;;;20.90;99.90;;;;;;4848784;29;20046;-87
2022/09/14 08:24:21;;;;;;;1.88;0.95;;;21.20;99.90;;;;;;4848808;29;20033;-87
2022/09/14 08:26:48;;;;;;;2.63;1.13;;;21.70;99.90;;;;;;4864550;29;20045;-88
2022/09/14 08:29:18;;;;;;;2.50;0.35;;;22.00;99.90;;;;;;4850977;29;20133;-87
2022/09/14 08:32:23;;;;;;;;;;;22.10;99.90;;;;;;4864563;29;20067;-87
2022/09/14 08:34:57;;;;;;;1.08;0.30;;;22.90;99.90;;;;;;4851868;29;19924;-87
2022/09/14 08:37:23;;;;;;;2.38;0.40;;;23.30;98.80;;;;;;4826112;29;20069;-87
2022/09/14 08:39:52;;;;;;;4.30;0.65;;;23.50;98.10;;;;;;4844436;29;20385;-87
2022/09/14 08:42:21;;;;;;;1.15;0.52;;;24.40;95.90;;;;;;4859782;29;20088;-87
2022/09/14 08:45:01;;;;;;;0.90;0.32;;;25.50;95.90;;;;;;4846815;29;20061;-87
2022/09/14 08:47:40;;;;;;;0.70;0.38;;;26.00;94.40;;;;;;4847255;29;20053;-87
2022/09/14 08:50:09;;;;;;;4.32;0.95;;;27.10;92.70;;;;;;4847772;29;20568;-87
2022/09/14 08:52:41;;;;;;;1.55;0.45;;;27.40;90.60;;;;;;4847364;29;20132;-87
2022/09/14 08:55:32;;;;;;;0.70;0.32;;;29.00;88.30;;;;;;4846058;29;20153;-88
2022/09/14 08:58:20;;;;;;;0.75;0.20;;;28.80;81.90;;;;;;4845944;29;20053;-89
2022/09/14 09:00:54;;;;;;;1.23;0.60;;;27.80;84.10;;;;;;4859895;29;20642;-87
2022/09/14 09:03:47;;;;;;;0.55;0.32;;;26.90;86.40;;;;;;4856824;29;20042;-87
2022/09/14 09:06:27;;;;;;;1.10;0.60;;;26.00;89.50;;;;;;4828418;29;20056;-87
2022/09/14 09:09:12;;;;;;;2.50;0.40;;;25.20;90.40;;;;;;4838830;29;20056;-87
2022/09/14 09:11:45;;;;;;;1.13;0.70;;;24.60;90.70;;;;;;4862153;29;20125;-87
2022/09/14 09:14:32;;;;;;;2.20;1.35;;;24.20;90.90;;;;;;4846920;29;20046;-87
2022/09/14 09:17:05;;;;;;;1.08;0.40;;;23.70;90.90;;;;;;4846590;29;20373;-87
2022/09/14 09:19:48;;;;;;;1.65;0.40;;;23.50;92.40;;;;;;4846330;29;20389;-87
2022/09/14 09:22:21;;;;;;;1.67;0.20;;;23.50;92.30;;;;;;4846701;29;20097;-87
2022/09/14 09:24:51;;;;;;;4.18;1.13;;;23.80;91.10;;;;;;4846917;29;20082;-87
2022/09/14 09:27:17;;;;;;;2.25;0.90;;;23.70;91.20;;;;;;4846863;29;20469;-87
2022/09/14 09:29:44;;;;;;;1.40;0.35;;;24.10;91.60;;;;;;4846480;29;20089;-87
2022/09/14 09:32:19;;;;;;;2.30;0.68;;;24.70;90.80;;;;;;4846443;29;20401;-87
2022/09/14 09:34:45;;;;;;;1.90;0.30;;;25.20;89.60;;;;;;4861287;29;20037;-86
2022/09/14 09:37:21;;;;;;;0.55;0.30;;;25.40;87.90;;;;;;4846063;29;20052;-87
2022/09/14 09:39:48;;;;;;;3.45;0.60;;;25.50;86.80;;;;;;4859422;29;20033;-88
2022/09/14 09:42:23;;;;;;;1.90;0.40;;;25.80;87.70;;;;;;4818388;29;20034;-86
2022/09/14 09:45:02;;;;;;;3.47;0.40;;;26.60;85.80;;;;;;4827291;29;20056;-88
2022/09/14 09:47:40;;;;;;;2.10;0.73;;;27.20;85.60;;;;;;4830329;29;20109;-87
2022/09/14 09:50:12;;;;;;;0.68;0.20;;;27.40;82.20;;;;;;4860529;29;20041;-87
2022/09/14 09:53:01;;;;;;;5.35;0.40;;;27.70;82.90;;;;;;4844197;29;20497;-87
2022/09/14 09:55:37;;;;;;;1.02;0.50;;;27.60;83.80;;;;;;4843258;29;20416;-87
2022/09/14 09:58:22;;;;;;;0.80;0.32;;;27.30;83.00;;;;;;4839165;29;20482;-87
2022/09/14 10:01:19;;;;;;;0.30;0.20;;;27.30;83.90;;;;;;4848387;29;20120;-87
2022/09/14 10:03:59;;;;;;;2.38;0.88;;;27.60;83.00;;;;;;4823580;29;20057;-87
2022/09/14 10:06:24;;;;;;;0.70;0.28;;;27.80;83.70;;;;;;4839077;29;20051;-87
2022/09/14 10:08:52;;;;;;;0.38;0.30;;;28.20;84.70;;;;;;4829579;29;20041;-87
2022/09/14 10:11:35;;;;;;;1.92;1.10;;;28.20;82.00;;;;;;4838074;29;20041;-91
2022/09/14 10:14:18;;;;;;;1.50;0.65;;;28.00;82.50;;;;;;4855665;29;20087;-91
2022/09/14 10:16:44;;;;;;;1.10;0.40;;;27.60;82.50;;;;;;4860841;29;20522;-91
2022/09/14 10:19:17;;;;;;;2.17;0.73;;;27.30;83.00;;;;;;4830502;29;20045;-91
2022/09/14 10:22:15;;;;;;;0.50;0.15;;;26.90;83.10;;;;;;4845515;29;20048;-91
2022/09/14 10:24:54;;;;;;;1.27;0.70;;;26.50;83.50;;;;;;4802227;29;20129;-92
2022/09/14 10:27:34;;;;;;;1.02;0.60;;;26.60;85.60;;;;;;4861368;29;20060;-88
2022/09/14 10:30:03;;;;;;;1.15;0.45;;;26.70;85.10;;;;;;4863268;29;20397;-88
2022/09/14 10:32:31;;;;;;;0.40;0.40;;;27.00;83.70;;;;;;4849502;29;20136;-87
2022/09/14 10:34:58;;;;;;;1.30;0.65;;;27.30;84.30;;;;;;4847533;29;20041;-87
2022/09/14 10:37:36;;;;;;;2.22;0.50;;;27.30;83.10;;;;;;4848972;29;20048;-88
2022/09/14 10:40:18;;;;;;;1.67;0.82;;;27.10;83.90;;;;;;4834528;29;20049;-88
2022/09/14 10:43:15;;;;;;;1.50;0.50;;;26.90;84.00;;;;;;4847165;29;20109;-88
2022/09/14 10:45:53;;;;;;;1.80;0.77;;;26.80;84.10;;;;;;4822581;29;20085;-92
2022/09/14 10:48:48;;;;;;;0.77;0.30;;;26.50;83.20;;;;;;4850714;29;20488;-92
2022/09/14 10:51:33;;;;;;;0.70;0.32;;;26.40;83.90;;;;;;4844953;29;20524;-92
2022/09/14 10:53:59;;;;;;;0.45;0.22;;;26.00;83.10;;;;;;4845263;29;20401;-92
2022/09/14 10:56:42;;;;;;;1.27;0.43;;;26.00;83.90;;;;;;4860088;29;20061;-92
2022/09/14 10:59:23;;;;;;;1.27;0.35;;;26.00;84.90;;;;;;4860389;29;20157;-91
2022/09/14 11:02:14;;;;;;;0.38;0.38;;;26.30;85.30;;;;;;4845355;29;20042;-92
2022/09/14 11:04:45;;;;;;;3.15;0.50;;;26.60;85.00;;;;;;4844846;29;20048;-91
2022/09/14 11:07:35;;;;;;;0.40;0.40;;;27.00;84.10;;;;;;4860224;29;20142;-91
2022/09/14 11:10:07;;;;;;;2.17;0.77;;;27.20;83.80;;;;;;4860205;29;20389;-90
2022/09/14 11:12:43;;;;;;;1.92;0.63;;;27.20;83.80;;;;;;4841455;29;20053;-91
2022/09/14 11:15:28;;;;;;;4.20;0.60;;;27.30;82.50;;;;;;4844172;29;20481;-91
2022/09/14 11:18:21;;;;;;;0.90;0.52;;;27.30;81.80;;;;;;4859338;29;20045;-88
2022/09/14 11:21:04;;;;;;;1.42;0.17;;;27.10;83.20;;;;;;4844155;29;20116;-88
2022/09/14 11:23:59;;;;;;;1.15;0.45;;;27.20;84.10;;;;;;4843943;29;20060;-87
2022/09/14 11:26:39;;;;;;;2.55;0.50;;;27.60;84.20;;;;;;4859461;29;20065;-88
2022/09/14 11:29:31;;;;;;;1.52;0.50;;;27.80;83.40;;;;;;4859848;29;20045;-88
2022/09/14 11:32:05;;;;;;;0.50;0.40;;;27.50;83.10;;;;;;4852496;29;20037;-88
2022/09/14 11:34:57;;;;;;;3.50;0.32;;;27.20;81.30;;;;;;4843589;29;20041;-87
2022/09/14 11:37:35;;;;;;;0.55;0.30;;;27.30;82.80;;;;;;4829818;29;20046;-87
2022/09/14 11:40:13;;;;;;;1.08;0.45;;;27.20;82.40;;;;;;4844364;29;20523;-87
2022/09/14 11:42:49;;;;;;;1.08;0.30;;;27.10;83.40;;;;;;4844783;29;20046;-87
2022/09/14 11:45:24;;;;;;;2.05;0.82;;;27.40;84.10;;;;;;4859664;29;20501;-87
2022/09/14 11:48:05;;;;;;;2.90;0.57;;;27.80;82.50;;;;;;4843877;29;21738;-87
2022/09/14 11:50:32;;;;;;;2.15;0.60;;;28.30;82.70;;;;;;4850594;29;20294;-92
2022/09/14 11:53:13;;;;;;;1.95;0.57;;;28.30;79.50;;;;;;4829495;29;20049;-92
2022/09/14 11:55:49;;;;;;;1.50;0.47;;;28.40;81.30;;;;;;4859862;29;20492;-93
2022/09/14 11:58:28;;;;;;;0.70;0.20;;;28.30;80.40;;;;;;4845383;29;20049;-92
2022/09/14 12:01:02;;;;;;;2.67;0.50;;;27.70;79.80;;;;;;4847654;29;20416;-92
2022/09/14 12:03:49;;;;;;;2.53;0.40;;;27.10;80.20;;;;;;4847449;29;20092;-92
2022/09/14 12:06:30;;;;;;;2.08;0.55;;;26.80;80.70;;;;;;4847386;29;20045;-92
2022/09/14 12:09:11;;;;;;;0.90;0.40;;;26.90;81.40;;;;;;4849063;29;20048;-92
2022/09/14 12:11:37;;;;;;;0.30;0.30;;;27.00;80.00;;;;;;4862839;29;20029;-91
2022/09/14 12:14:35;;;;;;;2.13;0.50;;;27.20;82.70;;;;;;4862948;29;20567;-92
2022/09/14 12:17:22;;;;;;;3.00;0.63;;;26.90;80.50;;;;;;4819830;29;20094;-92
2022/09/14 12:19:51;;;;;;;0.52;0.40;;;27.10;81.40;;;;;;4862789;29;20061;-91
2022/09/14 12:22:22;;;;;;;1.48;0.50;;;27.00;80.40;;;;;;4847232;29;20072;-92
2022/09/14 12:24:59;;;;;;;4.55;0.60;;;27.00;80.90;;;;;;4862801;29;20079;-87
2022/09/14 12:27:28;;;;;;;2.60;0.60;;;26.60;79.30;;;;;;4862418;29;20056;-88
2022/09/14 12:29:57;;;;;;;1.73;0.70;;;26.20;80.50;;;;;;4846511;29;20440;-88
2022/09/14 12:32:25;;;;;;;1.48;0.63;;;26.00;80.00;;;;;;4885462;29;20049;-91
2022/09/14 12:35:29;;;;;;;2.55;1.13;;;25.80;82.10;;;;;;4870265;29;20048;-91
2022/09/14 12:37:55;;;;;;;3.50;0.68;;;25.60;82.00;;;;;;4869517;29;20041;-92
2022/09/14 12:40:20;;;;;;;1.20;0.55;;;25.60;81.40;;;;;;4866471;29;20038;-87
2022/09/14 12:42:46;;;;;;;0.25;0.20;;;25.50;82.40;;;;;;4862888;29;20049;-87
2022/09/14 12:45:50;;;;;;;0.20;0.20;;;25.60;83.90;;;;;;4862912;29;20042;-87
2022/09/14 12:48:44;;;;;;;1.33;0.40;;;25.40;82.40;;;;;;4861703;29;20073;-86
2022/09/14 12:51:31;;;;;;;7.07;0.98;;;24.70;81.30;;;;;;4844243;29;20042;-86
2022/09/14 12:53:57;;;;;;;1.05;0.40;;;24.60;83.00;;;;;;4844147;29;20066;-86
2022/09/14 12:56:47;;;;;;;1.27;0.30;;;24.50;84.50;;;;;;4828520;29;20054;-87
2022/09/14 12:59:31;;;;;;;0.52;0.22;;;24.40;84.60;;;;;;4849454;29;20077;-92
2022/09/14 13:02:21;;;;;;;1.60;0.50;;;24.30;84.60;;;;;;4846632;29;20041;-91
2022/09/14 13:04:52;;;;;;;0.90;0.40;;;24.00;87.10;;;;;;4846940;29;20124;-91
2022/09/14 13:07:20;;;;;;;0.95;0.50;;;23.80;85.50;;;;;;4861721;29;20137;-91
2022/09/14 13:09:57;;;;;;;1.23;0.50;;;23.60;86.00;;;;;;4841080;29;20083;-91
2022/09/14 13:12:40;;;;;;;0.93;0.40;;;23.60;87.20;;;;;;4861289;29;20052;-89
2022/09/14 13:15:15;;;;;;;1.08;0.75;;;23.60;87.60;;;;;;4859811;29;20053;-89
2022/09/14 13:18:04;;;;;;;1.98;0.63;;;23.70;87.20;;;;;;4856274;29;20041;-89
2022/09/14 13:20:33;;;;;;;4.75;0.52;;;23.60;87.50;;;;;;4861065;29;20450;-89
2022/09/14 13:23:00;;;;;;;0.75;0.60;;;23.50;88.90;;;;;;4845784;29;20059;-90
2022/09/14 13:25:37;;;;;;;0.75;0.43;;;23.30;90.10;;;;;;4861538;29;20109;-90
2022/09/14 13:28:05;;;;;;;2.55;0.60;;;23.30;90.10;;;;;;4845627;29;20045;-90
2022/09/14 13:30:34;;;;;;;2.40;1.05;;;23.20;90.70;;;;;;4861318;29;20452;-87
2022/09/14 13:33:00;;;;;;;0.80;0.50;;;23.10;90.20;;;;;;4845817;29;20049;-87
2022/09/14 13:35:53;;;;;;;2.67;1.00;;;23.10;91.20;;;;;;4846056;29;20048;-92
2022/09/14 13:38:37;;;;;;;0.85;0.38;;;23.00;91.00;;;;;;4853638;29;20467;-89
2022/09/14 13:41:13;;;;;;;1.50;0.60;;;22.90;90.80;;;;;;4860660;29;20049;-86
2022/09/14 13:43:41;;;;;;;2.40;0.70;;;22.70;91.10;;;;;;4861553;29;20465;-87
2022/09/14 13:46:09;;;;;;;1.05;0.52;;;22.70;91.40;;;;;;4845400;29;20072;-86
2022/09/14 13:48:40;;;;;;;0.73;0.40;;;22.60;90.90;;;;;;4854373;29;20124;-87
2022/09/14 13:51:07;;;;;;;0.63;0.43;;;22.60;90.80;;;;;;4859141;29;20049;-85